This is the latest recevied weather packets stored in our database for station/object W7OWO-1. If no packets are shown the sender has not sent any weather packets the latest 10 day(s).
| Time | Temp. | Humidity | Pressure | Rain* | Wind** | Luminosity | Snow |
|---|---|---|---|---|---|---|---|
| 1777550943 | 7.78° C | 97% | 1018.7 hPa | 0 mm | - | - | - |
| 1777550403 | 7.78° C | 97% | 1018.6 hPa | 0 mm | - | - | - |
| 1777548423 | 8.33° C | 95% | 1018.7 hPa | 0 mm | - | - | - |
| 1777547883 | 8.33° C | 95% | 1018.7 hPa | 0 mm | - | - | - |
| 1777544823 | 10° C | 90% | 1018.7 hPa | 0 mm | - | - | - |
| 1777544283 | 10° C | 89% | 1018.7 hPa | 0 mm | - | - | - |
| 1777543743 | 10.56° C | 89% | 1018.6 hPa | 0 mm | - | - | - |
| 1777540683 | 10° C | 90% | 1018.8 hPa | 0 mm | - | - | - |
| 1777540143 | 10° C | 90% | 1018.9 hPa | 0 mm | - | - | - |
| 1777539243 | 10° C | 90% | 1018.9 hPa | 0 mm | - | - | - |
| 1777538703 | 10° C | 90% | 1018.9 hPa | 0 mm | - | - | - |
| 1777535103 | 10.56° C | 88% | 1019.1 hPa | 0 mm | - | - | - |
| 1777533483 | 11.11° C | 87% | 1019.1 hPa | 0 mm | - | - | - |
| 1777526823 | 14.44° C | 74% | 1019.3 hPa | 0 mm | - | - | - |
| 1777522143 | 13.89° C | 80% | 1019.4 hPa | 0 mm | - | - | - |
| 1777521603 | 13.89° C | 79% | 1019.3 hPa | 0 mm | - | - | - |
| 1777520163 | 14.44° C | 76% | 1019.1 hPa | 0 mm | - | - | - |
| 1777518543 | 16.11° C | 71% | 1018.8 hPa | 0 mm | - | - | - |
| 1777517643 | 17.78° C | 65% | 1018.8 hPa | 0 mm | - | - | - |
| 1777514943 | 22.22° C | 49% | 1018.8 hPa | 0 mm | - | - | - |
| 1777509903 | 22.22° C | 49% | 1019.5 hPa | 0 mm | - | - | - |
| 1777507743 | 21.67° C | 47% | 1019.7 hPa | 0 mm | - | - | - |
| 1777507203 | 21.67° C | 49% | 1019.9 hPa | 0 mm | - | - | - |
| 1777505223 | 21.67° C | 46% | 1020.2 hPa | 0 mm | - | - | - |
| 1777502163 | 20.56° C | 55% | 1021 hPa | 0 mm | - | - | - |
* Rain latest hour (hover to see other rain measurements)
** Current wind speed in m/s (hover to see current wind gust speed)